createdAt,value
2018-02-03T00:01:23.700Z,7.12
2018-02-03T00:03:49.768Z,7.28
2018-02-03T00:06:15.840Z,8.88
2018-02-03T00:08:41.937Z,7.68
2018-02-03T00:11:08.018Z,7.18
2018-02-03T00:13:34.097Z,6.47
2018-02-03T00:16:00.181Z,6.45
2018-02-03T00:18:26.269Z,6.30
2018-02-03T00:20:52.359Z,7.40
2018-02-03T00:23:18.446Z,6.30
2018-02-03T00:25:44.673Z,7.03
2018-02-03T00:28:10.753Z,6.93
2018-02-03T00:30:36.845Z,6.78
2018-02-03T00:33:02.925Z,6.95
2018-02-03T00:35:29.007Z,7.07
2018-02-03T00:37:55.098Z,6.55
2018-02-03T00:40:21.174Z,6.45
2018-02-03T00:42:47.241Z,5.68
2018-02-03T00:45:13.350Z,6.72
2018-02-03T00:47:40.172Z,7.82
2018-02-03T00:50:06.251Z,6.62
2018-02-03T00:52:32.388Z,6.15
2018-02-03T00:54:58.452Z,8.65
2018-02-03T00:57:24.541Z,6.65
2018-02-03T00:59:50.620Z,7.72
2018-02-03T01:02:17.454Z,6.55
2018-02-03T01:04:43.541Z,7.53
2018-02-03T01:07:09.617Z,6.55
2018-02-03T01:09:35.689Z,7.20
2018-02-03T01:12:01.762Z,7.32
2018-02-03T01:14:28.577Z,7.15
2018-02-03T01:16:54.669Z,7.72
2018-02-03T01:19:20.748Z,7.53
2018-02-03T01:21:47.041Z,7.10
2018-02-03T01:24:13.157Z,7.75
2018-02-03T01:26:39.205Z,7.12
2018-02-03T01:29:05.294Z,7.25
2018-02-03T01:31:31.373Z,7.85
2018-02-03T01:33:57.456Z,7.05
2018-02-03T01:36:23.544Z,7.55
2018-02-03T01:38:50.368Z,6.37
2018-02-03T01:41:17.226Z,7.45
2018-02-03T01:43:44.054Z,8.23
2018-02-03T01:46:10.129Z,7.47
2018-02-03T01:48:36.209Z,6.72
2018-02-03T01:51:02.285Z,7.62
2018-02-03T01:53:28.406Z,6.50
2018-02-03T01:55:54.481Z,7.00
2018-02-03T01:58:20.562Z,7.62
2018-02-03T02:00:46.633Z,7.10
2018-02-03T02:03:12.709Z,7.18
2018-02-03T02:05:38.794Z,6.93
2018-02-03T02:08:04.881Z,7.20
2018-02-03T02:10:30.961Z,7.43
2018-02-03T02:12:57.048Z,7.70
2018-02-03T02:15:23.118Z,7.43
2018-02-03T02:17:49.189Z,6.90
2018-02-03T02:20:15.281Z,7.30
2018-02-03T02:22:41.348Z,7.22
2018-02-03T02:25:07.433Z,7.28
2018-02-03T02:27:33.838Z,8.57
2018-02-03T02:29:59.917Z,7.68
2018-02-03T02:32:26.013Z,7.93
2018-02-03T02:34:52.089Z,7.37
2018-02-03T02:37:18.167Z,6.95
2018-02-03T02:39:44.253Z,7.50
2018-02-03T02:42:10.353Z,7.53
2018-02-03T02:44:36.438Z,7.47
2018-02-03T02:47:02.513Z,7.32
2018-02-03T02:49:28.597Z,8.45
2018-02-03T02:51:54.918Z,8.13
2018-02-03T02:54:20.994Z,6.82
2018-02-03T02:56:47.070Z,7.22
2018-02-03T02:59:13.141Z,7.32
2018-02-03T03:01:39.234Z,7.07
2018-02-03T03:04:05.358Z,6.57
2018-02-03T03:06:31.460Z,7.47
2018-02-03T03:08:57.533Z,7.75
2018-02-03T03:11:23.613Z,6.68
2018-02-03T03:13:49.693Z,6.43
2018-02-03T03:16:16.510Z,6.90
2018-02-03T03:18:42.576Z,6.40
2018-02-03T03:21:08.789Z,6.10
2018-02-03T03:23:34.857Z,6.10
2018-02-03T03:26:00.940Z,6.93
2018-02-03T03:28:27.013Z,6.53
2018-02-03T03:30:53.110Z,6.10
2018-02-03T03:33:19.205Z,6.37
2018-02-03T03:35:45.281Z,7.35
2018-02-03T03:38:11.348Z,6.35
2018-02-03T03:40:38.912Z,6.55
2018-02-03T03:43:06.480Z,6.93
2018-02-03T03:45:32.562Z,7.22
2018-02-03T03:47:58.633Z,7.57
2018-02-03T03:50:24.799Z,8.20
2018-02-03T03:52:51.211Z,7.20
2018-02-03T03:55:18.054Z,7.20
2018-02-03T03:57:44.881Z,7.93
2018-02-03T04:00:10.960Z,8.50
2018-02-03T04:02:37.037Z,8.32
2018-02-03T04:05:03.126Z,7.90
2018-02-03T04:07:29.233Z,8.38
2018-02-03T04:09:55.298Z,7.03
2018-02-03T04:12:21.369Z,8.35
2018-02-03T04:14:47.445Z,8.05
2018-02-03T04:17:13.557Z,7.30
2018-02-03T04:19:39.633Z,7.80
2018-02-03T04:22:05.710Z,6.50
2018-02-03T04:24:31.793Z,8.27
2018-02-03T04:26:57.892Z,7.57
2018-02-03T04:29:24.697Z,7.10
2018-02-03T04:31:50.777Z,7.05
2018-02-03T04:34:16.846Z,8.18
2018-02-03T04:36:42.934Z,7.72
2018-02-03T04:39:09.001Z,7.40
2018-02-03T04:41:35.080Z,7.70
2018-02-03T04:44:01.173Z,8.07
2018-02-03T04:46:27.285Z,8.52
2018-02-03T04:48:53.371Z,8.07
2018-02-03T04:51:19.490Z,7.35
2018-02-03T04:53:45.989Z,7.20
2018-02-03T04:56:12.057Z,7.55
2018-02-03T04:58:38.138Z,8.80
2018-02-03T05:01:04.229Z,8.38
2018-02-03T05:03:30.311Z,8.73
2018-02-03T05:05:56.401Z,9.80
2018-02-03T05:08:22.477Z,8.02
2018-02-03T05:10:48.622Z,8.00
2018-02-03T05:13:14.676Z,8.23
2018-02-03T05:15:40.758Z,7.85
2018-02-03T05:18:06.833Z,7.90
2018-02-03T05:20:32.914Z,8.35
2018-02-03T05:22:59.001Z,8.63
2018-02-03T05:25:25.827Z,9.43
2018-02-03T05:27:51.917Z,8.48
2018-02-03T05:30:24.821Z,9.23
2018-02-03T05:32:52.393Z,8.13
2018-02-03T05:35:18.483Z,9.15
2018-02-03T05:37:44.585Z,8.77
2018-02-03T05:40:10.662Z,9.20
2018-02-03T05:42:36.786Z,8.82
2018-02-03T05:45:02.889Z,9.90
2018-02-03T05:47:28.979Z,7.15
2018-02-03T05:49:55.109Z,8.55
2018-02-03T05:52:21.178Z,8.38
2018-02-03T05:54:47.246Z,8.38
2018-02-03T05:57:13.569Z,10.15
2018-02-03T05:59:39.642Z,8.02
2018-02-03T06:02:05.721Z,9.65
2018-02-03T06:04:32.543Z,9.00
2018-02-03T06:06:58.622Z,8.43
2018-02-03T06:09:24.699Z,8.18
2018-02-03T06:11:51.522Z,9.05
2018-02-03T06:14:17.597Z,9.18
2018-02-03T06:16:43.681Z,9.13
2018-02-03T06:19:09.773Z,8.45
2018-02-03T06:21:36.385Z,9.02
2018-02-03T06:24:02.457Z,8.30
2018-02-03T06:26:28.560Z,9.35
2018-02-03T06:28:54.638Z,9.38
2018-02-03T06:31:21.460Z,9.23
2018-02-03T06:33:47.548Z,9.10
2018-02-03T06:36:13.620Z,8.48
2018-02-03T06:38:39.685Z,10.00
2018-02-03T06:41:05.777Z,8.63
2018-02-03T06:43:31.885Z,10.02
2018-02-03T06:45:57.969Z,9.18
2018-02-03T06:48:24.045Z,10.00
2018-02-03T06:50:51.309Z,9.73
2018-02-03T06:53:18.138Z,9.82
2018-02-03T06:55:44.222Z,9.60
2018-02-03T06:58:10.310Z,10.90
2018-02-03T07:00:36.385Z,11.77
2018-02-03T07:03:02.465Z,11.38
2018-02-03T07:05:28.589Z,11.93
2018-02-03T07:07:54.661Z,11.43
2018-02-03T07:10:20.765Z,10.40
2018-02-03T07:12:46.844Z,10.85
2018-02-03T07:15:12.947Z,9.48
2018-02-03T07:17:39.040Z,10.57
2018-02-03T07:20:05.125Z,9.40
2018-02-03T07:22:31.199Z,10.95
2018-02-03T07:24:57.299Z,10.82
2018-02-03T07:27:23.701Z,9.90
2018-02-03T07:29:49.790Z,10.00
2018-02-03T07:32:15.866Z,10.00
2018-02-03T07:34:41.929Z,11.05
2018-02-03T07:37:08.023Z,11.55
2018-02-03T07:39:34.089Z,10.52
2018-02-03T07:42:00.158Z,11.00
2018-02-03T07:44:26.254Z,9.90
2018-02-03T07:46:52.382Z,11.15
2018-02-03T07:49:18.458Z,10.05
2018-02-03T07:51:44.534Z,12.27
2018-02-03T07:54:10.801Z,11.20
2018-02-03T07:56:37.025Z,14.68
2018-02-03T07:59:03.131Z,11.10
2018-02-03T08:01:29.958Z,13.27
2018-02-03T08:03:56.034Z,9.25
2018-02-03T08:06:22.153Z,9.27
2018-02-03T08:08:48.265Z,10.65
2018-02-03T08:11:14.354Z,10.13
2018-02-03T08:13:40.387Z,11.30
2018-02-03T08:16:06.508Z,9.50
2018-02-03T08:18:33.351Z,10.43
2018-02-03T08:21:00.945Z,11.93
2018-02-03T08:23:27.063Z,9.90
2018-02-03T08:25:53.109Z,10.18
2018-02-03T08:28:19.195Z,10.45
2018-02-03T08:30:45.674Z,9.75
2018-02-03T08:33:11.725Z,9.23
2018-02-03T08:35:37.797Z,9.35
2018-02-03T08:38:04.625Z,9.75
2018-02-03T08:40:30.757Z,9.60
2018-02-03T08:42:56.838Z,9.43
2018-02-03T08:45:22.929Z,10.20
2018-02-03T08:47:49.009Z,9.63
2018-02-03T08:50:15.098Z,9.23
2018-02-03T08:52:41.205Z,9.95
2018-02-03T08:55:07.281Z,10.88
2018-02-03T08:57:33.345Z,9.82
2018-02-03T09:00:00.183Z,17.05
2018-02-03T09:02:26.997Z,11.00
2018-02-03T09:04:53.449Z,10.23
2018-02-03T09:07:19.541Z,12.73
2018-02-03T09:09:45.609Z,11.75
2018-02-03T09:12:11.742Z,9.35
2018-02-03T09:14:38.567Z,12.23
2018-02-03T09:17:05.381Z,10.48
2018-02-03T09:19:31.461Z,10.65
2018-02-03T09:21:57.973Z,9.70
2018-02-03T09:24:24.788Z,8.50
2018-02-03T09:26:50.871Z,9.63
2018-02-03T09:29:16.941Z,8.07
2018-02-03T09:31:43.020Z,9.43
2018-02-03T09:34:09.114Z,9.48
2018-02-03T09:36:35.926Z,9.30
2018-02-03T09:39:01.998Z,9.90
2018-02-03T09:41:28.817Z,9.18
2018-02-03T09:43:55.633Z,11.30
2018-02-03T09:46:21.697Z,9.13
2018-02-03T09:48:47.765Z,8.60
2018-02-03T09:51:14.674Z,9.30
2018-02-03T09:53:40.770Z,7.95
2018-02-03T09:56:06.850Z,7.47
2018-02-03T09:58:32.948Z,7.22
2018-02-03T10:00:59.790Z,7.78
2018-02-03T10:03:26.606Z,8.20
2018-02-03T10:05:52.681Z,8.10
2018-02-03T10:08:18.753Z,8.77
2018-02-03T10:10:44.822Z,8.65
2018-02-03T10:13:10.913Z,8.38
2018-02-03T10:15:37.745Z,7.15
2018-02-03T10:18:03.838Z,7.15
2018-02-03T10:20:29.903Z,6.43
2018-02-03T10:22:55.993Z,8.00
2018-02-03T10:25:22.066Z,8.90
2018-02-03T10:27:48.877Z,7.93
2018-02-03T10:30:14.960Z,9.55
2018-02-03T10:32:41.029Z,8.70
2018-02-03T10:35:07.126Z,7.90
2018-02-03T10:37:33.194Z,8.25
2018-02-03T10:39:59.268Z,7.62
2018-02-03T10:42:25.368Z,9.05
2018-02-03T10:44:51.442Z,7.82
2018-02-03T10:47:17.532Z,7.95
2018-02-03T10:49:43.597Z,7.57
2018-02-03T10:52:09.681Z,7.60
2018-02-03T10:54:36.190Z,6.10
2018-02-03T10:57:03.001Z,7.90
2018-02-03T10:59:29.065Z,7.85
2018-02-03T11:01:55.893Z,7.10
2018-02-03T11:04:23.016Z,6.75
2018-02-03T11:06:49.080Z,6.82
2018-02-03T11:09:15.913Z,7.85
2018-02-03T11:11:42.737Z,8.20
2018-02-03T11:14:08.810Z,8.10
2018-02-03T11:16:34.889Z,8.60
2018-02-03T11:19:00.965Z,7.85
2018-02-03T11:21:27.369Z,9.05
2018-02-03T11:23:53.442Z,9.40
2018-02-03T11:26:19.555Z,9.00
2018-02-03T11:28:45.605Z,8.63
2018-02-03T11:31:11.697Z,8.45
2018-02-03T11:33:37.780Z,9.02
2018-02-03T11:36:03.877Z,9.07
2018-02-03T11:38:29.958Z,7.07
2018-02-03T11:40:56.045Z,8.52
2018-02-03T11:43:22.130Z,8.57
2018-02-03T11:45:48.209Z,7.80
2018-02-03T11:48:15.042Z,8.10
2018-02-03T11:50:41.883Z,6.72
2018-02-03T11:53:07.957Z,7.15
2018-02-03T11:55:34.026Z,6.20
2018-02-03T11:58:00.989Z,7.90
2018-02-03T12:00:27.810Z,9.13
2018-02-03T12:02:53.882Z,6.80
2018-02-03T12:05:19.949Z,6.95
2018-02-03T12:07:46.017Z,7.03
2018-02-03T12:10:12.117Z,8.15
2018-02-03T12:12:38.197Z,7.10
2018-02-03T12:15:04.589Z,6.70
2018-02-03T12:17:31.433Z,6.80
2018-02-03T12:19:58.254Z,6.15
2018-02-03T12:22:24.330Z,6.35
2018-02-03T12:24:50.496Z,7.40
2018-02-03T12:27:16.586Z,6.93
2018-02-03T12:29:43.464Z,7.32
2018-02-03T12:32:10.034Z,7.12
2018-02-03T12:34:36.854Z,7.15
2018-02-03T12:37:02.934Z,5.95
2018-02-03T12:39:29.209Z,6.57
2018-02-03T12:41:55.315Z,7.35
2018-02-03T12:44:21.386Z,6.25
2018-02-03T12:46:48.202Z,5.25
2018-02-03T12:49:14.309Z,6.00
2018-02-03T12:51:40.398Z,14.00
2018-02-03T12:54:06.500Z,6.00
2018-02-03T12:56:33.344Z,5.85
2018-02-03T12:58:59.706Z,5.35
2018-02-03T13:01:25.808Z,5.25
2018-02-03T13:03:51.921Z,6.37
2018-02-03T13:06:18.017Z,5.65
2018-02-03T13:08:44.381Z,4.93
2018-02-03T13:11:11.201Z,5.62
2018-02-03T13:13:37.282Z,8.00
2018-02-03T13:16:03.365Z,6.55
2018-02-03T13:18:29.448Z,6.28
2018-02-03T13:20:55.521Z,5.80
2018-02-03T13:23:21.594Z,6.40
2018-02-03T13:25:47.685Z,4.82
2018-02-03T13:28:13.770Z,6.28
2018-02-03T13:30:39.844Z,6.18
2018-02-03T13:33:06.906Z,5.85
2018-02-03T13:35:32.993Z,5.82
2018-02-03T13:37:59.061Z,5.60
2018-02-03T13:40:25.170Z,5.97
2018-02-03T13:42:51.245Z,5.07
2018-02-03T13:45:17.314Z,4.75
2018-02-03T13:47:44.151Z,5.37
2018-02-03T13:50:10.232Z,4.70
2018-02-03T13:52:36.553Z,5.03
2018-02-03T13:55:02.639Z,4.65
2018-02-03T13:57:28.713Z,5.35
2018-02-03T13:59:54.796Z,5.30
2018-02-03T14:02:20.874Z,5.85
2018-02-03T14:04:46.945Z,6.45
2018-02-03T14:07:13.054Z,4.85
2018-02-03T14:09:39.897Z,5.12
2018-02-03T14:12:06.705Z,5.78
2018-02-03T14:14:32.797Z,6.45
2018-02-03T14:16:58.889Z,6.25
2018-02-03T14:19:25.723Z,6.72
2018-02-03T14:21:51.793Z,6.78
2018-02-03T14:24:23.919Z,6.60
2018-02-03T14:26:50.826Z,5.90
2018-02-03T14:29:16.905Z,5.60
2018-02-03T14:31:42.982Z,6.60
2018-02-03T14:34:09.062Z,6.65
2018-02-03T14:36:35.157Z,6.80
2018-02-03T14:39:01.977Z,5.60
2018-02-03T14:41:28.153Z,5.93
2018-02-03T14:43:54.225Z,6.82
2018-02-03T14:46:20.315Z,6.97
2018-02-03T14:48:46.413Z,6.65
2018-02-03T14:51:12.490Z,6.55
2018-02-03T14:53:38.566Z,6.80
2018-02-03T14:56:04.652Z,6.53
2018-02-03T14:58:30.731Z,5.28
2018-02-03T15:00:56.822Z,4.97
2018-02-03T15:03:22.893Z,6.07
2018-02-03T15:05:48.973Z,5.50
2018-02-03T15:08:15.069Z,4.75
2018-02-03T15:10:41.137Z,5.28
2018-02-03T15:13:07.962Z,5.37
2018-02-03T15:15:34.026Z,5.25
2018-02-03T15:18:00.100Z,4.40
2018-02-03T15:20:26.193Z,5.70
2018-02-03T15:22:52.314Z,5.22
2018-02-03T15:25:18.393Z,5.37
2018-02-03T15:27:44.534Z,5.25
2018-02-03T15:30:10.573Z,5.65
2018-02-03T15:32:36.650Z,5.40
2018-02-03T15:35:02.754Z,5.95
2018-02-03T15:37:28.821Z,5.78
2018-02-03T15:39:55.156Z,6.55
2018-02-03T15:42:21.990Z,5.30
2018-02-03T15:44:48.066Z,6.07
2018-02-03T15:47:14.139Z,4.60
2018-02-03T15:49:40.226Z,5.75
2018-02-03T15:52:07.117Z,4.62
2018-02-03T15:54:33.189Z,6.37
2018-02-03T15:56:59.273Z,4.93
2018-02-03T15:59:26.530Z,5.72
2018-02-03T16:01:53.338Z,4.10
2018-02-03T16:04:19.409Z,4.37
2018-02-03T16:06:45.486Z,4.90
2018-02-03T16:09:11.563Z,5.97
2018-02-03T16:11:37.651Z,5.25
2018-02-03T16:14:03.736Z,5.43
2018-02-03T16:16:29.801Z,5.47
2018-02-03T16:18:55.897Z,5.30
2018-02-03T16:21:21.991Z,4.32
2018-02-03T16:23:48.080Z,4.93
2018-02-03T16:26:14.305Z,7.72
2018-02-03T16:28:40.404Z,5.20
2018-02-03T16:31:06.483Z,5.47
2018-02-03T16:33:33.297Z,4.43
2018-02-03T16:35:59.386Z,5.07
2018-02-03T16:38:25.472Z,4.65
2018-02-03T16:40:52.298Z,5.70
2018-02-03T16:43:19.123Z,5.72
2018-02-03T16:45:45.189Z,5.18
2018-02-03T16:48:11.261Z,4.78
2018-02-03T16:50:37.385Z,5.10
2018-02-03T16:53:03.517Z,5.75
2018-02-03T16:55:29.589Z,4.40
2018-02-03T16:57:55.673Z,4.90
2018-02-03T17:00:21.746Z,5.03
2018-02-03T17:02:47.850Z,4.68
2018-02-03T17:05:14.673Z,5.10
2018-02-03T17:07:41.011Z,4.57
2018-02-03T17:10:07.070Z,5.05
2018-02-03T17:12:33.138Z,4.68
2018-02-03T17:15:10.820Z,5.10
2018-02-03T17:17:36.892Z,4.75
2018-02-03T17:20:03.702Z,4.75
2018-02-03T17:22:29.770Z,5.90
2018-02-03T17:24:55.869Z,5.25
2018-02-03T17:27:22.109Z,4.85
2018-02-03T17:29:51.862Z,4.80
2018-02-03T17:32:17.933Z,4.80
2018-02-03T17:34:44.005Z,4.30
2018-02-03T17:37:16.271Z,5.25
2018-02-03T17:39:42.311Z,4.62
2018-02-03T17:42:08.378Z,4.10
2018-02-03T17:44:34.473Z,3.75
2018-02-03T17:47:08.380Z,3.80
2018-02-03T17:49:34.458Z,4.00
2018-02-03T17:52:01.326Z,3.90
2018-02-03T17:54:28.797Z,4.43
2018-02-03T17:57:01.077Z,4.35
2018-02-03T17:59:27.137Z,4.47
2018-02-03T18:01:53.222Z,3.83
2018-02-03T18:04:19.289Z,4.00
2018-02-03T18:06:51.597Z,4.25
2018-02-03T18:09:17.674Z,4.30
2018-02-03T18:11:43.790Z,4.50
2018-02-03T18:14:09.866Z,4.35
2018-02-03T18:16:36.195Z,3.58
2018-02-03T18:19:02.340Z,4.18
2018-02-03T18:21:28.423Z,4.72
2018-02-03T18:23:55.237Z,3.20
2018-02-03T18:26:21.318Z,4.05
2018-02-03T18:28:47.406Z,3.62
2018-02-03T18:31:13.497Z,3.80
2018-02-03T18:33:39.577Z,4.75
2018-02-03T18:36:06.397Z,5.30
2018-02-03T18:38:32.488Z,4.50
2018-02-03T18:40:58.565Z,5.05
2018-02-03T18:43:24.653Z,4.93
2018-02-03T18:45:50.738Z,4.70
2018-02-03T18:48:16.809Z,5.62
2018-02-03T18:50:42.878Z,6.05
2018-02-03T18:53:09.068Z,5.12
2018-02-03T18:55:35.147Z,5.15
2018-02-03T18:58:01.226Z,4.95
2018-02-03T19:00:27.309Z,4.97
2018-02-03T19:02:53.411Z,4.50
2018-02-03T19:05:19.493Z,5.78
2018-02-03T19:07:45.569Z,5.50
2018-02-03T19:10:11.661Z,3.90
2018-02-03T19:12:38.473Z,4.18
2018-02-03T19:15:04.949Z,3.95
2018-02-03T19:17:31.049Z,5.85
2018-02-03T19:19:57.135Z,4.75
2018-02-03T19:22:23.221Z,4.35
2018-02-03T19:24:49.549Z,4.60
2018-02-03T19:27:16.357Z,5.53
2018-02-03T19:29:42.433Z,4.00
2018-02-03T19:32:08.505Z,5.50
2018-02-03T19:34:34.582Z,5.10
2018-02-03T19:37:00.701Z,4.35
2018-02-03T19:39:26.783Z,4.68
2018-02-03T19:41:52.874Z,6.12
2018-02-03T19:44:18.965Z,5.87
2018-02-03T19:46:45.783Z,5.80
2018-02-03T19:49:11.866Z,5.93
2018-02-03T19:51:37.942Z,6.15
2018-02-03T19:54:04.021Z,5.43
2018-02-03T19:56:30.110Z,6.45
2018-02-03T19:58:56.933Z,6.28
2018-02-03T20:01:23.006Z,6.37
2018-02-03T20:03:49.084Z,5.47
2018-02-03T20:06:15.165Z,6.53
2018-02-03T20:08:41.383Z,5.30
2018-02-03T20:11:07.483Z,6.57
2018-02-03T20:13:34.293Z,7.30
2018-02-03T20:16:00.377Z,8.45
2018-02-03T20:18:26.454Z,8.00
2018-02-03T20:20:52.521Z,7.18
2018-02-03T20:23:18.605Z,7.95
2018-02-03T20:25:44.701Z,7.70
2018-02-03T20:28:10.773Z,7.60
2018-02-03T20:30:36.849Z,7.78
2018-02-03T20:33:02.939Z,7.62
2018-02-03T20:35:29.078Z,10.18
2018-02-03T20:37:55.142Z,8.63
2018-02-03T20:40:21.234Z,9.80
2018-02-03T20:42:47.309Z,8.20
2018-02-03T20:45:13.394Z,8.38
2018-02-03T20:47:39.502Z,8.43
2018-02-03T20:50:05.573Z,8.75
2018-02-03T20:52:31.641Z,8.55
2018-02-03T20:54:57.742Z,8.05
2018-02-03T20:57:24.781Z,8.70
2018-02-03T20:59:50.852Z,8.90
2018-02-03T21:02:16.929Z,8.50
2018-02-03T21:04:43.008Z,7.65
2018-02-03T21:07:09.102Z,7.30
2018-02-03T21:09:35.172Z,9.35
2018-02-03T21:12:01.601Z,9.50
2018-02-03T21:14:27.670Z,7.80
2018-02-03T21:16:53.746Z,9.40
2018-02-03T21:19:19.834Z,9.15
2018-02-03T21:21:46.657Z,9.15
2018-02-03T21:24:13.504Z,8.07
2018-02-03T21:26:40.393Z,8.75
2018-02-03T21:29:06.465Z,10.32
2018-02-03T21:31:33.290Z,9.75
2018-02-03T21:33:59.367Z,10.10
2018-02-03T21:36:25.441Z,9.07
2018-02-03T21:38:51.525Z,9.25
2018-02-03T21:41:17.589Z,8.57
2018-02-03T21:43:43.666Z,8.43
2018-02-03T21:46:09.753Z,9.20
2018-02-03T21:48:35.814Z,8.43
2018-02-03T21:51:01.918Z,8.63
2018-02-03T21:53:28.041Z,9.20
2018-02-03T21:55:54.301Z,8.85
2018-02-03T21:58:20.381Z,8.48
2018-02-03T22:00:46.454Z,7.93
2018-02-03T22:03:12.554Z,9.43
2018-02-03T22:05:39.364Z,8.80
2018-02-03T22:08:05.452Z,8.43
2018-02-03T22:10:31.526Z,8.40
2018-02-03T22:12:57.607Z,8.75
2018-02-03T22:15:23.712Z,8.50
2018-02-03T22:17:49.802Z,9.23
2018-02-03T22:20:15.889Z,9.35
2018-02-03T22:22:41.973Z,13.93
2018-02-03T22:25:08.793Z,9.20
2018-02-03T22:27:35.325Z,9.07
2018-02-03T22:30:01.397Z,9.43
2018-02-03T22:32:27.461Z,8.73
2018-02-03T22:34:53.523Z,10.05
2018-02-03T22:37:20.337Z,9.30
2018-02-03T22:39:46.423Z,10.20
2018-02-03T22:42:12.509Z,8.27
2018-02-03T22:44:39.341Z,8.50
2018-02-03T22:47:05.469Z,8.93
2018-02-03T22:49:31.754Z,8.48
2018-02-03T22:51:57.837Z,8.50
2018-02-03T22:54:23.910Z,8.52
2018-02-03T22:56:50.006Z,8.20
2018-02-03T22:59:16.090Z,8.13
2018-02-03T23:01:42.177Z,7.85
2018-02-03T23:04:08.261Z,8.13
2018-02-03T23:06:34.697Z,8.82
2018-02-03T23:09:00.779Z,6.97
2018-02-03T23:11:26.863Z,7.75
2018-02-03T23:13:52.946Z,7.78
2018-02-03T23:16:19.037Z,8.23
2018-02-03T23:18:45.120Z,8.32
2018-02-03T23:21:11.944Z,7.75
2018-02-03T23:23:38.030Z,7.68
2018-02-03T23:26:04.109Z,7.55
2018-02-03T23:28:30.188Z,7.28
2018-02-03T23:30:56.270Z,7.22
2018-02-03T23:33:22.349Z,7.12
2018-02-03T23:35:48.417Z,7.37
2018-02-03T23:38:14.501Z,7.82
2018-02-03T23:40:40.581Z,7.90
2018-02-03T23:43:06.658Z,7.50
2018-02-03T23:45:32.734Z,6.40
2018-02-03T23:47:58.822Z,7.10
2018-02-03T23:50:25.873Z,6.20
2018-02-03T23:52:52.698Z,6.28
2018-02-03T23:55:18.785Z,7.07
2018-02-03T23:57:44.865Z,6.30
